createdAt,value
2019-01-29T00:00:50.932Z,865.76
2019-01-29T00:01:50.883Z,865.74
2019-01-29T00:02:51.108Z,865.82
2019-01-29T00:03:51.093Z,865.86
2019-01-29T00:04:50.909Z,865.85
2019-01-29T00:05:50.887Z,865.84
2019-01-29T00:06:50.863Z,865.90
2019-01-29T00:07:50.852Z,866.00
2019-01-29T00:08:51.099Z,865.96
2019-01-29T00:09:51.064Z,866.01
2019-01-29T00:10:51.067Z,866.06
2019-01-29T00:11:51.079Z,866.10
2019-01-29T00:12:51.051Z,866.13
2019-01-29T00:13:51.067Z,866.14
2019-01-29T00:14:50.838Z,866.18
2019-01-29T00:15:51.057Z,866.12
2019-01-29T00:16:51.046Z,866.19
2019-01-29T00:17:51.029Z,866.17
2019-01-29T00:18:50.771Z,866.23
2019-01-29T00:19:50.801Z,866.20
2019-01-29T00:20:51.054Z,866.28
2019-01-29T00:21:50.793Z,866.32
2019-01-29T00:22:50.999Z,866.32
2019-01-29T00:23:50.777Z,866.38
2019-01-29T00:24:50.997Z,866.36
2019-01-29T00:25:50.954Z,866.46
2019-01-29T00:26:50.713Z,866.51
2019-01-29T00:27:50.978Z,866.51
2019-01-29T00:28:50.974Z,866.56
2019-01-29T00:29:50.689Z,866.62
2019-01-29T00:30:50.687Z,866.63
2019-01-29T00:31:50.722Z,866.62
2019-01-29T00:32:51.073Z,866.69
2019-01-29T00:33:50.708Z,866.70
2019-01-29T00:34:50.698Z,866.67
2019-01-29T00:35:51.029Z,866.71
2019-01-29T00:36:50.648Z,866.72
2019-01-29T00:37:51.010Z,866.76
2019-01-29T00:38:50.633Z,866.77
2019-01-29T00:39:50.628Z,866.79
2019-01-29T00:40:50.915Z,866.83
2019-01-29T00:41:50.913Z,866.87
2019-01-29T00:42:50.892Z,866.84
2019-01-29T00:43:50.893Z,866.80
2019-01-29T00:44:50.816Z,866.85
2019-01-29T00:45:50.847Z,866.90
2019-01-29T00:46:50.617Z,866.91
2019-01-29T00:47:50.796Z,866.94
2019-01-29T00:48:50.816Z,867.07
2019-01-29T00:49:50.556Z,867.10
2019-01-29T00:50:50.783Z,867.15
2019-01-29T00:51:50.584Z,867.22
2019-01-29T00:52:50.823Z,867.18
2019-01-29T00:53:50.822Z,867.18
2019-01-29T00:54:50.784Z,867.24
2019-01-29T00:55:50.515Z,867.25
2019-01-29T00:56:50.540Z,867.23
2019-01-29T00:57:50.771Z,867.23
2019-01-29T00:58:50.544Z,867.24
2019-01-29T00:59:50.526Z,867.32
2019-01-29T01:00:50.745Z,867.35
2019-01-29T01:01:50.514Z,867.40
2019-01-29T01:02:50.705Z,867.48
2019-01-29T01:03:50.511Z,867.52
2019-01-29T01:04:50.495Z,867.57
2019-01-29T01:05:50.671Z,867.57
2019-01-29T01:06:50.482Z,867.60
2019-01-29T01:07:50.726Z,867.59
2019-01-29T01:08:50.698Z,867.56
2019-01-29T01:09:56.998Z,867.63
2019-01-29T01:10:50.667Z,867.58
2019-01-29T01:11:50.698Z,867.64
2019-01-29T01:12:50.662Z,867.61
2019-01-29T01:13:50.446Z,867.68
2019-01-29T01:14:50.617Z,867.71
2019-01-29T01:16:50.381Z,867.72
2019-01-29T01:17:51.432Z,867.73
2019-01-29T01:18:50.395Z,867.77
2019-01-29T01:19:50.585Z,867.77
2019-01-29T01:20:50.577Z,867.76
2019-01-29T01:21:50.362Z,867.74
2019-01-29T01:22:51.488Z,867.77
2019-01-29T01:23:50.617Z,867.82
2019-01-29T01:24:50.320Z,867.85
2019-01-29T01:25:50.571Z,867.96
2019-01-29T01:26:50.577Z,868.03
2019-01-29T01:27:50.554Z,868.01
2019-01-29T01:28:50.557Z,868.01
2019-01-29T01:29:50.678Z,868.00
2019-01-29T01:30:50.323Z,868.04
2019-01-29T01:31:50.272Z,868.08
2019-01-29T01:32:50.270Z,868.10
2019-01-29T01:33:50.259Z,868.13
2019-01-29T01:34:50.244Z,868.14
2019-01-29T01:35:50.606Z,868.11
2019-01-29T01:36:50.585Z,868.21
2019-01-29T01:37:50.244Z,868.23
2019-01-29T01:38:50.250Z,868.24
2019-01-29T01:39:50.267Z,868.25
2019-01-29T01:40:50.217Z,868.33
2019-01-29T01:41:50.214Z,868.32
2019-01-29T01:42:50.463Z,868.39
2019-01-29T01:43:50.200Z,868.39
2019-01-29T01:44:50.406Z,868.46
2019-01-29T01:45:50.190Z,868.49
2019-01-29T01:46:50.202Z,868.49
2019-01-29T01:47:50.390Z,868.55
2019-01-29T01:48:50.152Z,868.55
2019-01-29T01:49:50.177Z,868.62
2019-01-29T01:50:50.439Z,868.66
2019-01-29T01:51:50.354Z,868.65
2019-01-29T01:52:50.161Z,868.67
2019-01-29T01:53:50.386Z,868.70
2019-01-29T01:54:50.114Z,868.75
2019-01-29T01:55:50.109Z,868.76
2019-01-29T01:56:50.372Z,868.75
2019-01-29T01:57:50.105Z,868.79
2019-01-29T01:58:50.352Z,868.83
2019-01-29T01:59:50.317Z,868.88
2019-01-29T02:00:50.339Z,868.90
2019-01-29T02:01:50.105Z,868.94
2019-01-29T02:02:50.351Z,869.01
2019-01-29T02:03:50.922Z,869.03
2019-01-29T02:04:50.684Z,869.03
2019-01-29T02:05:50.294Z,869.04
2019-01-29T02:06:50.292Z,869.04
2019-01-29T02:07:50.320Z,869.09
2019-01-29T02:08:50.258Z,869.04
2019-01-29T02:09:50.008Z,869.04
2019-01-29T02:10:50.258Z,869.04
2019-01-29T02:11:50.267Z,869.07
2019-01-29T02:12:50.250Z,869.09
2019-01-29T02:13:50.023Z,869.14
2019-01-29T02:14:50.213Z,869.13
2019-01-29T02:15:50.015Z,869.12
2019-01-29T02:16:50.006Z,869.14
2019-01-29T02:17:50.241Z,869.22
2019-01-29T02:18:49.957Z,869.19
2019-01-29T02:19:50.237Z,869.26
2019-01-29T02:20:50.223Z,869.27
2019-01-29T02:21:50.164Z,869.31
2019-01-29T02:22:49.963Z,869.36
2019-01-29T02:23:50.152Z,869.39
2019-01-29T02:24:49.919Z,869.44
2019-01-29T02:25:50.199Z,869.42
2019-01-29T02:26:49.931Z,869.46
2019-01-29T02:27:49.926Z,869.51
2019-01-29T02:28:49.919Z,869.53
2019-01-29T02:29:50.159Z,869.58
2019-01-29T02:30:50.088Z,869.59
2019-01-29T02:31:50.159Z,869.64
2019-01-29T02:32:50.142Z,869.66
2019-01-29T02:33:49.890Z,869.71
2019-01-29T02:34:50.082Z,869.72
2019-01-29T02:35:50.125Z,869.76
2019-01-29T02:36:50.086Z,869.77
2019-01-29T02:37:50.046Z,869.80
2019-01-29T02:38:49.816Z,869.88
2019-01-29T02:39:49.841Z,869.90
2019-01-29T02:40:50.029Z,869.98
2019-01-29T02:41:49.790Z,869.96
2019-01-29T02:42:49.820Z,869.99
2019-01-29T02:43:50.080Z,870.03
2019-01-29T02:44:49.991Z,870.08
2019-01-29T02:45:50.024Z,870.10
2019-01-29T02:46:49.986Z,870.14
2019-01-29T02:47:50.010Z,870.19
2019-01-29T02:48:50.044Z,870.13
2019-01-29T02:49:50.004Z,870.15
2019-01-29T02:50:49.770Z,870.19
2019-01-29T02:51:49.751Z,870.26
2019-01-29T02:52:49.764Z,870.30
2019-01-29T02:53:49.739Z,870.30
2019-01-29T02:54:49.738Z,870.35
2019-01-29T02:55:49.987Z,870.39
2019-01-29T02:56:49.722Z,870.32
2019-01-29T02:57:49.985Z,870.44
2019-01-29T02:58:49.937Z,870.46
2019-01-29T02:59:49.917Z,870.47
2019-01-29T03:00:49.932Z,870.45
2019-01-29T03:01:49.696Z,870.52
2019-01-29T03:02:50.379Z,870.49
2019-01-29T03:03:50.039Z,870.53
2019-01-29T03:04:49.668Z,870.54
2019-01-29T03:05:49.654Z,870.53
2019-01-29T03:06:49.633Z,870.54
2019-01-29T03:07:49.997Z,870.59
2019-01-29T03:08:49.745Z,870.58
2019-01-29T03:09:49.635Z,870.61
2019-01-29T03:10:49.589Z,870.62
2019-01-29T03:11:49.890Z,870.62
2019-01-29T03:12:49.835Z,870.65
2019-01-29T03:13:49.577Z,870.63
2019-01-29T03:14:49.864Z,870.68
2019-01-29T03:15:49.827Z,870.75
2019-01-29T03:16:49.556Z,870.83
2019-01-29T03:17:49.772Z,870.84
2019-01-29T03:18:49.545Z,870.85
2019-01-29T03:19:49.528Z,870.81
2019-01-29T03:20:49.788Z,870.77
2019-01-29T03:21:49.802Z,870.85
2019-01-29T03:22:49.755Z,870.83
2019-01-29T03:23:49.514Z,870.89
2019-01-29T03:24:49.548Z,870.94
2019-01-29T03:25:49.496Z,870.96
2019-01-29T03:26:49.747Z,871.04
2019-01-29T03:27:49.474Z,871.04
2019-01-29T03:28:49.478Z,871.03
2019-01-29T03:29:49.753Z,871.08
2019-01-29T03:30:49.499Z,871.19
2019-01-29T03:31:49.931Z,871.15
2019-01-29T03:32:49.876Z,871.15
2019-01-29T03:33:49.441Z,871.17
2019-01-29T03:34:49.729Z,871.25
2019-01-29T03:35:49.682Z,871.21
2019-01-29T03:36:49.664Z,871.26
2019-01-29T03:37:49.697Z,871.25
2019-01-29T03:38:49.432Z,871.26
2019-01-29T03:39:49.650Z,871.29
2019-01-29T03:40:49.392Z,871.33
2019-01-29T03:41:49.408Z,871.34
2019-01-29T03:42:49.366Z,871.30
2019-01-29T03:43:49.375Z,871.32
2019-01-29T03:44:49.389Z,871.32
2019-01-29T03:45:49.403Z,871.34
2019-01-29T03:46:49.340Z,871.31
2019-01-29T03:47:49.384Z,871.36
2019-01-29T03:48:49.713Z,871.34
2019-01-29T03:49:49.327Z,871.37
2019-01-29T03:50:49.356Z,871.36
2019-01-29T03:51:49.313Z,871.37
2019-01-29T03:52:49.306Z,871.42
2019-01-29T03:53:49.341Z,871.40
2019-01-29T03:54:49.299Z,871.44
2019-01-29T03:55:49.297Z,871.42
2019-01-29T03:56:49.587Z,871.44
2019-01-29T03:57:49.567Z,871.50
2019-01-29T03:58:49.266Z,871.55
2019-01-29T03:59:49.524Z,871.56
2019-01-29T04:00:49.287Z,871.60
2019-01-29T04:01:49.551Z,871.54
2019-01-29T04:02:49.509Z,871.54
2019-01-29T04:03:49.521Z,871.53
2019-01-29T04:04:49.529Z,871.53
2019-01-29T04:05:49.277Z,871.54
2019-01-29T04:06:49.213Z,871.65
2019-01-29T04:07:49.492Z,871.51
2019-01-29T04:08:49.460Z,871.52
2019-01-29T04:09:49.450Z,871.59
2019-01-29T04:10:49.449Z,871.58
2019-01-29T04:11:49.226Z,871.56
2019-01-29T04:12:49.450Z,871.56
2019-01-29T04:13:49.453Z,871.55
2019-01-29T04:14:49.423Z,871.57
2019-01-29T04:15:49.153Z,871.58
2019-01-29T04:16:49.144Z,871.57
2019-01-29T04:17:49.173Z,871.57
2019-01-29T04:18:49.365Z,871.62
2019-01-29T04:19:49.116Z,871.64
2019-01-29T04:20:49.394Z,871.60
2019-01-29T04:21:49.134Z,871.65
2019-01-29T04:22:49.406Z,871.67
2019-01-29T04:23:49.145Z,871.63
2019-01-29T04:24:49.091Z,871.61
2019-01-29T04:25:49.123Z,871.69
2019-01-29T04:26:49.076Z,871.64
2019-01-29T04:27:49.114Z,871.57
2019-01-29T04:28:49.329Z,871.57
2019-01-29T04:29:49.280Z,871.56
2019-01-29T04:30:49.072Z,871.63
2019-01-29T04:31:49.340Z,871.64
2019-01-29T04:32:49.064Z,871.69
2019-01-29T04:33:49.061Z,871.73
2019-01-29T04:34:49.024Z,871.74
2019-01-29T04:35:49.310Z,871.80
2019-01-29T04:36:49.034Z,871.80
2019-01-29T04:37:49.092Z,871.87
2019-01-29T04:38:49.047Z,871.85
2019-01-29T04:39:49.858Z,871.91
2019-01-29T04:40:49.019Z,871.97
2019-01-29T04:41:49.024Z,872.04
2019-01-29T04:42:49.768Z,871.94
2019-01-29T04:43:49.225Z,871.95
2019-01-29T04:44:49.178Z,871.95
2019-01-29T04:45:48.986Z,871.97
2019-01-29T04:46:49.180Z,871.99
2019-01-29T04:47:49.208Z,871.99
2019-01-29T04:48:48.963Z,871.97
2019-01-29T04:49:48.929Z,871.98
2019-01-29T04:50:49.170Z,871.98
2019-01-29T04:51:49.146Z,871.97
2019-01-29T04:52:48.904Z,871.99
2019-01-29T04:53:57.089Z,871.99
2019-01-29T04:54:49.157Z,871.99
2019-01-29T04:55:49.136Z,871.96
2019-01-29T04:56:48.903Z,871.93
2019-01-29T04:57:48.863Z,871.97
2019-01-29T04:58:48.858Z,871.98
2019-01-29T04:59:48.886Z,872.08
2019-01-29T05:00:48.843Z,872.08
2019-01-29T05:01:49.119Z,872.12
2019-01-29T05:02:49.089Z,872.05
2019-01-29T05:03:49.089Z,872.10
2019-01-29T05:04:49.067Z,872.14
2019-01-29T05:05:49.104Z,872.09
2019-01-29T05:06:49.797Z,872.13
2019-01-29T05:07:49.047Z,872.14
2019-01-29T05:08:48.783Z,872.14
2019-01-29T05:09:49.032Z,872.22
2019-01-29T05:10:48.995Z,872.13
2019-01-29T05:11:49.030Z,872.17
2019-01-29T05:12:48.796Z,872.18
2019-01-29T05:13:49.007Z,872.14
2019-01-29T05:14:48.779Z,872.15
2019-01-29T05:15:48.784Z,872.14
2019-01-29T05:16:48.770Z,872.15
2019-01-29T05:17:48.757Z,872.16
2019-01-29T05:18:48.976Z,872.15
2019-01-29T05:19:48.967Z,872.26
2019-01-29T05:20:48.974Z,872.25
2019-01-29T05:21:48.956Z,872.31
2019-01-29T05:22:48.731Z,872.29
2019-01-29T05:23:48.940Z,872.23
2019-01-29T05:24:48.917Z,872.17
2019-01-29T05:25:48.931Z,872.21
2019-01-29T05:26:48.909Z,872.20
2019-01-29T05:27:48.671Z,872.16
2019-01-29T05:28:48.918Z,872.22
2019-01-29T05:29:48.690Z,872.23
2019-01-29T05:30:48.867Z,872.25
2019-01-29T05:31:48.918Z,872.29
2019-01-29T05:32:48.658Z,872.32
2019-01-29T05:33:48.619Z,872.33
2019-01-29T05:34:48.620Z,872.34
2019-01-29T05:35:48.834Z,872.31
2019-01-29T05:36:48.601Z,872.29
2019-01-29T05:37:48.629Z,872.33
2019-01-29T05:38:48.588Z,872.36
2019-01-29T05:39:48.585Z,872.38
2019-01-29T05:40:48.615Z,872.41
2019-01-29T05:41:48.792Z,872.46
2019-01-29T05:42:48.838Z,872.46
2019-01-29T05:43:48.596Z,872.46
2019-01-29T05:44:48.544Z,872.48
2019-01-29T05:45:48.821Z,872.47
2019-01-29T05:46:48.534Z,872.54
2019-01-29T05:47:48.560Z,872.49
2019-01-29T05:48:48.776Z,872.47
2019-01-29T05:49:48.520Z,872.44
2019-01-29T05:50:48.873Z,872.46
2019-01-29T05:51:48.904Z,872.51
2019-01-29T05:52:48.539Z,872.51
2019-01-29T05:53:48.863Z,872.52
2019-01-29T05:54:48.882Z,872.53
2019-01-29T05:55:48.869Z,872.56
2019-01-29T05:56:48.879Z,872.55
2019-01-29T05:57:48.712Z,872.60
2019-01-29T05:58:48.747Z,872.62
2019-01-29T05:59:48.704Z,872.61
2019-01-29T06:00:48.693Z,872.67
2019-01-29T06:01:48.456Z,872.70
2019-01-29T06:02:48.790Z,872.70
2019-01-29T06:03:48.713Z,872.76
2019-01-29T06:04:48.676Z,872.74
2019-01-29T06:05:48.413Z,872.72
2019-01-29T06:06:48.396Z,872.72
2019-01-29T06:07:48.617Z,872.79
2019-01-29T06:08:48.640Z,872.77
2019-01-29T06:09:48.383Z,872.78
2019-01-29T06:10:48.439Z,872.83
2019-01-29T06:11:48.395Z,872.80
2019-01-29T06:12:48.389Z,872.80
2019-01-29T06:13:48.345Z,872.86
2019-01-29T06:14:48.598Z,872.82
2019-01-29T06:15:48.322Z,872.86
2019-01-29T06:16:48.324Z,872.85
2019-01-29T06:17:48.598Z,872.89
2019-01-29T06:18:48.308Z,872.85
2019-01-29T06:19:48.590Z,872.85
2019-01-29T06:20:48.298Z,872.91
2019-01-29T06:21:48.557Z,872.91
2019-01-29T06:22:48.533Z,872.91
2019-01-29T06:23:48.273Z,872.91
2019-01-29T06:24:48.276Z,872.97
2019-01-29T06:25:48.530Z,872.97
2019-01-29T06:26:48.513Z,873.00
2019-01-29T06:27:48.242Z,873.02
2019-01-29T06:28:48.583Z,873.01
2019-01-29T06:29:48.486Z,873.05
2019-01-29T06:30:48.547Z,873.10
2019-01-29T06:31:48.264Z,873.11
2019-01-29T06:32:48.477Z,873.06
2019-01-29T06:33:48.493Z,873.14
2019-01-29T06:34:48.199Z,873.11
2019-01-29T06:35:48.423Z,873.13
2019-01-29T06:36:48.412Z,873.16
2019-01-29T06:37:48.424Z,873.12
2019-01-29T06:38:48.408Z,873.16
2019-01-29T06:39:48.170Z,873.15
2019-01-29T06:40:48.517Z,873.21
2019-01-29T06:41:48.538Z,873.19
2019-01-29T06:42:48.188Z,873.24
2019-01-29T06:43:48.554Z,873.20
2019-01-29T06:44:48.530Z,873.30
2019-01-29T06:45:48.164Z,873.23
2019-01-29T06:46:48.164Z,873.22
2019-01-29T06:47:48.521Z,873.34
2019-01-29T06:48:49.165Z,873.22
2019-01-29T06:49:48.105Z,873.30
2019-01-29T06:50:48.391Z,873.33
2019-01-29T06:51:48.344Z,873.37
2019-01-29T06:52:48.349Z,873.31
2019-01-29T06:53:48.113Z,873.36
2019-01-29T06:54:48.077Z,873.36
2019-01-29T06:55:48.343Z,873.43
2019-01-29T06:56:48.280Z,873.45
2019-01-29T06:57:55.236Z,873.42
2019-01-29T06:58:48.300Z,873.46
2019-01-29T06:59:48.301Z,873.45
2019-01-29T07:00:48.038Z,873.45
2019-01-29T07:01:48.289Z,873.45
2019-01-29T07:02:48.284Z,873.43
2019-01-29T07:03:48.298Z,873.41
2019-01-29T07:04:48.000Z,873.45
2019-01-29T07:05:48.024Z,873.44
2019-01-29T07:06:48.263Z,873.48
2019-01-29T07:07:47.985Z,873.46
2019-01-29T07:08:47.971Z,873.44
2019-01-29T07:09:47.969Z,873.50
2019-01-29T07:10:48.191Z,873.47
2019-01-29T07:11:47.950Z,873.53
2019-01-29T07:12:47.959Z,873.51
2019-01-29T07:13:48.192Z,873.54
2019-01-29T07:14:48.190Z,873.52
2019-01-29T07:15:47.934Z,873.56
2019-01-29T07:16:48.191Z,873.60
2019-01-29T07:17:47.950Z,873.61
2019-01-29T07:18:47.914Z,873.59
2019-01-29T07:19:48.198Z,873.54
2019-01-29T07:20:48.161Z,873.59
2019-01-29T07:21:48.194Z,873.55
2019-01-29T07:22:47.906Z,873.56
2019-01-29T07:23:48.091Z,873.52
2019-01-29T07:24:47.866Z,873.53
2019-01-29T07:25:48.093Z,873.55
2019-01-29T07:26:48.116Z,873.60
2019-01-29T07:27:47.884Z,873.67
2019-01-29T07:28:47.944Z,873.67
2019-01-29T07:29:48.067Z,873.70
2019-01-29T07:30:47.823Z,873.76
2019-01-29T07:31:48.121Z,873.77
2019-01-29T07:32:48.079Z,873.80
2019-01-29T07:33:48.101Z,873.87
2019-01-29T07:34:48.059Z,873.82
2019-01-29T07:35:47.789Z,873.90
2019-01-29T07:36:48.015Z,873.88
2019-01-29T07:37:47.826Z,873.88
2019-01-29T07:38:48.035Z,873.88
2019-01-29T07:39:47.799Z,873.92
2019-01-29T07:40:48.051Z,873.96
2019-01-29T07:41:47.779Z,873.97
2019-01-29T07:42:47.743Z,874.00
2019-01-29T07:43:47.752Z,874.08
2019-01-29T07:44:48.021Z,874.06
2019-01-29T07:45:47.755Z,874.04
2019-01-29T07:46:47.720Z,874.08
2019-01-29T07:47:47.980Z,874.06
2019-01-29T07:48:47.927Z,874.06
2019-01-29T07:49:47.951Z,874.12
2019-01-29T07:50:47.950Z,874.11
2019-01-29T07:51:47.678Z,874.08
2019-01-29T07:52:47.968Z,874.09
2019-01-29T07:53:47.702Z,874.10
2019-01-29T07:54:51.215Z,874.16
2019-01-29T07:55:47.694Z,874.17
2019-01-29T07:56:47.944Z,874.24
2019-01-29T07:57:47.677Z,874.24
2019-01-29T07:58:49.272Z,874.26
2019-01-29T07:59:47.674Z,874.26
2019-01-29T08:00:47.875Z,874.28
2019-01-29T08:01:47.662Z,874.30
2019-01-29T08:02:47.658Z,874.31
2019-01-29T08:03:47.638Z,874.40
2019-01-29T08:04:47.632Z,874.33
2019-01-29T08:05:47.859Z,874.34
2019-01-29T08:06:47.617Z,874.37
2019-01-29T08:07:47.877Z,874.39
2019-01-29T08:08:47.863Z,874.38
2019-01-29T08:09:47.573Z,874.36
2019-01-29T08:10:47.550Z,874.37
2019-01-29T08:11:47.556Z,874.38
2019-01-29T08:12:47.583Z,874.43
2019-01-29T08:13:47.828Z,874.37
2019-01-29T08:14:47.775Z,874.43
2019-01-29T08:15:47.800Z,874.48
2019-01-29T08:16:47.781Z,874.49
2019-01-29T08:17:47.788Z,874.48
2019-01-29T08:18:47.721Z,874.51
2019-01-29T08:19:47.492Z,874.54
2019-01-29T08:20:47.517Z,874.45
2019-01-29T08:21:48.161Z,874.52
2019-01-29T08:22:47.478Z,874.53
2019-01-29T08:23:47.737Z,874.55
2019-01-29T08:24:51.920Z,874.59
2019-01-29T08:25:48.165Z,874.58
2019-01-29T08:26:47.748Z,874.57
2019-01-29T08:27:47.455Z,874.58
2019-01-29T08:28:47.768Z,874.57
2019-01-29T08:29:47.462Z,874.62
2019-01-29T08:30:48.056Z,874.59
2019-01-29T08:31:47.423Z,874.57
2019-01-29T08:32:47.635Z,874.58
2019-01-29T08:33:47.412Z,874.63
2019-01-29T08:34:47.726Z,874.67
2019-01-29T08:35:47.413Z,874.69
2019-01-29T08:36:47.615Z,874.67
2019-01-29T08:37:47.633Z,874.70
2019-01-29T08:38:47.397Z,874.70
2019-01-29T08:39:47.403Z,874.73
2019-01-29T08:40:47.358Z,874.71
2019-01-29T08:41:47.636Z,874.78
2019-01-29T08:42:47.345Z,874.78
2019-01-29T08:43:47.631Z,874.84
2019-01-29T08:44:47.325Z,874.86
2019-01-29T08:45:47.348Z,874.85
2019-01-29T08:46:47.315Z,874.91
2019-01-29T08:47:47.302Z,874.91
2019-01-29T08:48:47.297Z,874.89
2019-01-29T08:49:47.297Z,874.88
2019-01-29T08:50:47.321Z,874.94
2019-01-29T08:51:47.540Z,874.92
2019-01-29T08:52:47.267Z,874.99
2019-01-29T08:53:47.300Z,874.92
2019-01-29T08:54:47.263Z,874.95
2019-01-29T08:55:47.470Z,874.98
2019-01-29T08:56:47.465Z,874.98
2019-01-29T08:57:47.504Z,874.94
2019-01-29T08:58:47.260Z,874.98
2019-01-29T08:59:47.464Z,875.04
2019-01-29T09:00:47.482Z,875.05
2019-01-29T09:01:47.222Z,875.06
2019-01-29T09:02:47.914Z,875.03
2019-01-29T09:03:47.201Z,875.05
2019-01-29T09:04:47.477Z,875.20
2019-01-29T09:05:47.186Z,875.17
2019-01-29T09:06:47.188Z,875.22
2019-01-29T09:07:47.204Z,875.23
2019-01-29T09:08:47.436Z,875.18
2019-01-29T09:09:47.421Z,875.20
2019-01-29T09:10:47.410Z,875.23
2019-01-29T09:11:47.403Z,875.31
2019-01-29T09:12:47.437Z,875.32
2019-01-29T09:13:47.173Z,875.35
2019-01-29T09:14:47.139Z,875.35
2019-01-29T09:15:47.374Z,875.37
2019-01-29T09:16:47.334Z,875.39
2019-01-29T09:17:47.363Z,875.37
2019-01-29T09:18:47.386Z,875.38
2019-01-29T09:19:47.322Z,875.43
2019-01-29T09:20:47.378Z,875.43
2019-01-29T09:21:47.343Z,875.54
2019-01-29T09:22:47.072Z,875.53
2019-01-29T09:23:47.323Z,875.45
2019-01-29T09:24:47.055Z,875.41
2019-01-29T09:26:47.076Z,875.56
2019-01-29T09:27:47.317Z,875.49
2019-01-29T09:28:47.133Z,875.54
2019-01-29T09:29:47.284Z,875.56
2019-01-29T09:30:47.305Z,875.57
2019-01-29T09:31:47.297Z,875.54
2019-01-29T09:32:47.266Z,875.55
2019-01-29T09:33:47.254Z,875.54
2019-01-29T09:34:47.262Z,875.56
2019-01-29T09:35:47.018Z,875.50
2019-01-29T09:36:46.993Z,875.50
2019-01-29T09:37:46.996Z,875.52
2019-01-29T09:38:47.216Z,875.58
2019-01-29T09:39:47.205Z,875.61
2019-01-29T09:40:47.170Z,875.67
2019-01-29T09:41:46.946Z,875.68
2019-01-29T09:42:47.188Z,875.68
2019-01-29T09:43:46.923Z,875.65
2019-01-29T09:44:46.916Z,875.64
2019-01-29T09:45:47.144Z,875.65
2019-01-29T09:46:47.131Z,875.67
2019-01-29T09:47:47.119Z,875.69
2019-01-29T09:48:46.893Z,875.69
2019-01-29T09:49:47.157Z,875.74
2019-01-29T09:50:47.143Z,875.70
2019-01-29T09:51:47.159Z,875.76
2019-01-29T09:52:46.874Z,875.76
2019-01-29T09:53:47.128Z,875.76
2019-01-29T09:54:47.147Z,875.79
2019-01-29T09:55:46.840Z,875.76
2019-01-29T09:56:46.878Z,875.79
2019-01-29T09:57:46.863Z,875.82
2019-01-29T09:58:46.827Z,875.81
2019-01-29T09:59:47.074Z,875.82
2019-01-29T10:00:47.098Z,875.88
2019-01-29T10:01:47.033Z,875.82
2019-01-29T10:02:47.064Z,875.86
2019-01-29T10:03:47.037Z,875.89
2019-01-29T10:04:47.055Z,875.90
2019-01-29T10:05:46.799Z,875.95
2019-01-29T10:06:47.020Z,875.92
2019-01-29T10:07:46.985Z,875.95
2019-01-29T10:08:46.753Z,875.95
2019-01-29T10:09:47.001Z,876.04
2019-01-29T10:10:46.974Z,876.02
2019-01-29T10:11:46.724Z,876.04
2019-01-29T10:12:46.750Z,876.05
2019-01-29T10:13:46.949Z,876.06
2019-01-29T10:14:47.001Z,876.09
2019-01-29T10:15:46.707Z,876.18
2019-01-29T10:16:46.966Z,876.19
2019-01-29T10:17:46.929Z,876.18
2019-01-29T10:18:46.946Z,876.18
2019-01-29T10:19:46.674Z,876.22
2019-01-29T10:20:46.680Z,876.20
2019-01-29T10:21:46.693Z,876.21
2019-01-29T10:22:46.903Z,876.24
2019-01-29T10:23:46.647Z,876.25
2019-01-29T10:24:46.645Z,876.26
2019-01-29T10:25:46.852Z,876.30
2019-01-29T10:26:46.859Z,876.29
2019-01-29T10:27:46.660Z,876.33
2019-01-29T10:28:46.883Z,876.32
2019-01-29T10:29:46.876Z,876.39
2019-01-29T10:30:46.639Z,876.37
2019-01-29T10:31:46.594Z,876.31
2019-01-29T10:32:46.627Z,876.33
2019-01-29T10:33:46.628Z,876.33
2019-01-29T10:34:46.839Z,876.39
2019-01-29T10:35:46.571Z,876.36
2019-01-29T10:36:46.858Z,876.39
2019-01-29T10:37:46.590Z,876.41
2019-01-29T10:38:46.830Z,876.48
2019-01-29T10:39:46.551Z,876.48
2019-01-29T10:40:46.798Z,876.54
2019-01-29T10:41:46.575Z,876.56
2019-01-29T10:42:46.516Z,876.61
2019-01-29T10:43:46.506Z,876.58
2019-01-29T10:44:46.771Z,876.62
2019-01-29T10:45:46.790Z,876.63
2019-01-29T10:46:46.748Z,876.67
2019-01-29T10:47:46.477Z,876.67
2019-01-29T10:48:46.521Z,876.65
2019-01-29T10:49:46.701Z,876.66
2019-01-29T10:50:46.716Z,876.67
2019-01-29T10:51:46.464Z,876.70
2019-01-29T10:52:46.682Z,876.74
2019-01-29T10:53:46.715Z,876.75
2019-01-29T10:54:46.704Z,876.76
2019-01-29T10:55:47.391Z,876.77
2019-01-29T10:56:46.644Z,876.81
2019-01-29T10:57:46.659Z,876.82
2019-01-29T10:58:46.667Z,876.85
2019-01-29T10:59:46.663Z,876.84
2019-01-29T11:00:46.649Z,876.87
2019-01-29T11:01:46.394Z,876.83
2019-01-29T11:02:46.650Z,876.89
2019-01-29T11:03:46.367Z,876.88
2019-01-29T11:04:46.403Z,876.90
2019-01-29T11:05:46.396Z,876.91
2019-01-29T11:06:46.655Z,876.93
2019-01-29T11:07:46.340Z,876.90
2019-01-29T11:08:46.349Z,876.90
2019-01-29T11:09:48.251Z,876.94
2019-01-29T11:10:46.566Z,876.95
2019-01-29T11:11:46.687Z,877.01
2019-01-29T11:12:46.714Z,876.99
2019-01-29T11:13:46.311Z,877.00
2019-01-29T11:14:46.290Z,877.00
2019-01-29T11:15:46.287Z,877.00
2019-01-29T11:16:46.701Z,877.02
2019-01-29T11:17:46.652Z,877.02
2019-01-29T11:18:46.269Z,877.03
2019-01-29T11:19:46.266Z,877.07
2019-01-29T11:20:46.496Z,877.09
2019-01-29T11:21:46.242Z,877.12
2019-01-29T11:22:46.540Z,877.11
2019-01-29T11:23:46.490Z,877.13
2019-01-29T11:24:46.260Z,877.13
2019-01-29T11:25:46.515Z,877.11
2019-01-29T11:26:46.467Z,877.12
2019-01-29T11:27:46.503Z,877.11
2019-01-29T11:28:46.768Z,877.15
2019-01-29T11:29:46.216Z,877.16
2019-01-29T11:30:46.443Z,877.13
2019-01-29T11:31:46.481Z,877.15
2019-01-29T11:32:46.216Z,877.16
2019-01-29T11:33:46.193Z,877.20
2019-01-29T11:34:46.426Z,877.23
2019-01-29T11:35:46.179Z,877.20
2019-01-29T11:36:46.193Z,877.21
2019-01-29T11:37:46.170Z,877.26
2019-01-29T11:38:46.362Z,877.29
2019-01-29T11:39:46.390Z,877.30
2019-01-29T11:40:46.366Z,877.33
2019-01-29T11:41:46.143Z,877.37
2019-01-29T11:42:46.100Z,877.42
2019-01-29T11:43:46.132Z,877.41
2019-01-29T11:44:46.097Z,877.42
2019-01-29T11:45:46.314Z,877.45
2019-01-29T11:46:46.120Z,877.48
2019-01-29T11:47:46.064Z,877.47
2019-01-29T11:48:46.102Z,877.49
2019-01-29T11:49:46.102Z,877.53
2019-01-29T11:50:46.050Z,877.53
2019-01-29T11:51:46.276Z,877.57
2019-01-29T11:52:46.323Z,877.60
2019-01-29T11:53:46.293Z,877.58
2019-01-29T11:54:46.253Z,877.57
2019-01-29T11:55:46.251Z,877.64
2019-01-29T11:56:46.049Z,877.68
2019-01-29T11:57:46.956Z,877.70
2019-01-29T11:58:46.293Z,877.70
2019-01-29T11:59:46.209Z,877.74
2019-01-29T12:00:46.234Z,877.72
2019-01-29T12:01:46.239Z,877.72
2019-01-29T12:02:46.199Z,877.70
2019-01-29T12:03:46.014Z,877.67
2019-01-29T12:04:46.243Z,877.72
2019-01-29T12:05:45.944Z,877.72
2019-01-29T12:06:46.236Z,877.71
2019-01-29T12:07:46.181Z,877.77
2019-01-29T12:08:45.957Z,877.74
2019-01-29T12:09:46.158Z,877.75
2019-01-29T12:10:46.282Z,877.75
2019-01-29T12:11:46.162Z,877.80
2019-01-29T12:12:46.136Z,877.84
2019-01-29T12:13:45.891Z,877.83
2019-01-29T12:14:45.882Z,877.81
2019-01-29T12:15:46.180Z,877.84
2019-01-29T12:16:45.897Z,877.89
2019-01-29T12:17:46.162Z,877.91
2019-01-29T12:18:45.857Z,877.95
2019-01-29T12:19:46.082Z,877.94
2019-01-29T12:20:46.099Z,877.97
2019-01-29T12:21:46.070Z,877.99
2019-01-29T12:22:45.878Z,878.01
2019-01-29T12:23:45.859Z,878.02
2019-01-29T12:24:45.865Z,877.98
2019-01-29T12:25:45.856Z,878.01
2019-01-29T12:26:45.813Z,877.98
2019-01-29T12:27:45.847Z,878.05
2019-01-29T12:28:45.801Z,878.13
2019-01-29T12:29:45.821Z,878.16
2019-01-29T12:30:46.017Z,878.19